createdAt,value
2017-10-06T00:01:49.856Z,1.10
2017-10-06T00:04:17.318Z,1.70
2017-10-06T00:06:44.778Z,1.63
2017-10-06T00:09:12.224Z,1.60
2017-10-06T00:11:39.692Z,1.53
2017-10-06T00:14:07.134Z,1.40
2017-10-06T00:16:34.602Z,1.30
2017-10-06T00:19:02.048Z,1.40
2017-10-06T00:21:29.502Z,1.10
2017-10-06T00:23:56.967Z,1.50
2017-10-06T00:26:24.422Z,1.30
2017-10-06T00:28:51.874Z,1.60
2017-10-06T00:31:19.342Z,1.30
2017-10-06T00:33:46.791Z,1.30
2017-10-06T00:36:14.259Z,1.43
2017-10-06T00:38:42.467Z,1.57
2017-10-06T00:41:11.442Z,1.37
2017-10-06T00:43:38.910Z,1.40
2017-10-06T00:46:06.354Z,1.47
2017-10-06T00:48:33.828Z,1.40
2017-10-06T00:51:01.263Z,1.73
2017-10-06T00:53:28.722Z,1.00
2017-10-06T00:55:56.173Z,1.40
2017-10-06T00:58:23.634Z,1.30
2017-10-06T01:00:51.090Z,1.50
2017-10-06T01:03:18.547Z,1.50
2017-10-06T01:05:46.000Z,1.27
2017-10-06T01:08:13.462Z,1.40
2017-10-06T01:10:40.923Z,1.27
2017-10-06T01:13:08.378Z,1.37
2017-10-06T01:15:35.827Z,0.93
2017-10-06T01:18:03.287Z,1.30
2017-10-06T01:20:30.750Z,1.10
2017-10-06T01:22:58.219Z,1.40
2017-10-06T01:25:25.671Z,1.30
2017-10-06T01:27:53.138Z,1.47
2017-10-06T01:30:20.587Z,1.10
2017-10-06T01:32:48.030Z,1.07
2017-10-06T01:35:15.492Z,1.20
2017-10-06T01:37:42.987Z,1.50
2017-10-06T01:40:11.222Z,1.17
2017-10-06T01:42:38.672Z,1.80
2017-10-06T01:45:06.135Z,1.00
2017-10-06T01:47:33.591Z,1.60
2017-10-06T01:50:01.063Z,1.10
2017-10-06T01:52:28.518Z,1.67
2017-10-06T01:54:55.987Z,0.90
2017-10-06T01:57:23.441Z,1.07
2017-10-06T01:59:50.910Z,1.47
2017-10-06T02:02:18.368Z,1.30
2017-10-06T02:04:45.830Z,1.13
2017-10-06T02:07:13.282Z,1.60
2017-10-06T02:09:40.730Z,1.30
2017-10-06T02:12:08.183Z,1.20
2017-10-06T02:14:35.633Z,1.20
2017-10-06T02:17:03.110Z,1.60
2017-10-06T02:19:30.559Z,1.10
2017-10-06T02:21:58.034Z,1.07
2017-10-06T02:24:25.483Z,1.50
2017-10-06T02:26:52.938Z,1.77
2017-10-06T02:29:20.389Z,1.00
2017-10-06T02:31:47.851Z,1.13
2017-10-06T02:34:15.316Z,1.10
2017-10-06T02:36:43.538Z,1.10
2017-10-06T02:39:10.995Z,1.50
2017-10-06T02:41:38.471Z,1.43
2017-10-06T02:44:05.939Z,1.03
2017-10-06T02:46:33.428Z,1.30
2017-10-06T02:49:00.875Z,1.27
2017-10-06T02:51:28.334Z,1.00
2017-10-06T02:53:55.807Z,1.23
2017-10-06T02:56:23.254Z,1.30
2017-10-06T02:58:51.483Z,1.10
2017-10-06T03:01:18.939Z,1.10
2017-10-06T03:03:46.391Z,1.20
2017-10-06T03:06:13.848Z,1.13
2017-10-06T03:08:41.306Z,1.00
2017-10-06T03:11:08.754Z,1.20
2017-10-06T03:13:36.226Z,1.00
2017-10-06T03:16:03.695Z,1.43
2017-10-06T03:18:31.177Z,1.47
2017-10-06T03:20:58.640Z,1.10
2017-10-06T03:23:26.171Z,1.40
2017-10-06T03:25:54.383Z,1.23
2017-10-06T03:28:22.635Z,1.50
2017-10-06T03:30:50.098Z,1.17
2017-10-06T03:33:18.393Z,1.43
2017-10-06T03:35:46.623Z,1.10
2017-10-06T03:38:14.847Z,1.20
2017-10-06T03:40:42.307Z,1.50
2017-10-06T03:43:10.533Z,1.10
2017-10-06T03:45:38.003Z,1.20
2017-10-06T03:48:05.458Z,1.30
2017-10-06T03:50:32.958Z,1.30
2017-10-06T03:53:01.179Z,1.13
2017-10-06T03:55:28.650Z,1.40
2017-10-06T03:57:56.107Z,1.60
2017-10-06T04:00:23.571Z,0.93
2017-10-06T04:02:51.023Z,1.10
2017-10-06T04:05:18.487Z,1.17
2017-10-06T04:07:45.943Z,1.27
2017-10-06T04:10:13.402Z,1.10
2017-10-06T04:12:40.859Z,1.10
2017-10-06T04:15:08.334Z,1.20
2017-10-06T04:17:36.563Z,0.90
2017-10-06T04:20:04.019Z,1.30
2017-10-06T04:22:31.470Z,1.37
2017-10-06T04:24:58.930Z,1.10
2017-10-06T04:27:26.417Z,1.33
2017-10-06T04:29:53.883Z,1.10
2017-10-06T04:32:22.200Z,1.10
2017-10-06T04:34:49.752Z,1.03
2017-10-06T04:37:17.979Z,1.20
2017-10-06T04:39:45.434Z,1.40
2017-10-06T04:42:12.899Z,1.37
2017-10-06T04:44:40.369Z,1.10
2017-10-06T04:47:07.827Z,1.00
2017-10-06T04:49:35.286Z,1.40
2017-10-06T04:52:02.751Z,1.40
2017-10-06T04:54:30.206Z,0.90
2017-10-06T04:56:57.661Z,1.67
2017-10-06T04:59:25.119Z,1.30
2017-10-06T05:01:52.572Z,1.20
2017-10-06T05:04:20.811Z,1.00
2017-10-06T05:06:48.264Z,1.33
2017-10-06T05:09:15.734Z,1.20
2017-10-06T05:11:43.222Z,1.50
2017-10-06T05:14:10.681Z,1.10
2017-10-06T05:16:38.131Z,1.27
2017-10-06T05:19:05.596Z,1.43
2017-10-06T05:21:33.055Z,1.07
2017-10-06T05:24:00.507Z,0.90
2017-10-06T05:26:27.967Z,1.17
2017-10-06T05:28:55.438Z,1.00
2017-10-06T05:31:23.670Z,1.27
2017-10-06T05:33:51.163Z,1.00
2017-10-06T05:36:18.642Z,1.10
2017-10-06T05:38:46.094Z,1.23
2017-10-06T05:41:14.322Z,1.10
2017-10-06T05:43:41.779Z,1.13
2017-10-06T05:46:09.235Z,1.00
2017-10-06T05:48:37.467Z,1.53
2017-10-06T05:51:05.691Z,1.30
2017-10-06T05:53:33.949Z,1.33
2017-10-06T05:56:01.412Z,1.30
2017-10-06T05:58:28.879Z,1.17
2017-10-06T06:00:56.343Z,1.10
2017-10-06T06:03:23.798Z,1.30
2017-10-06T06:05:51.250Z,1.13
2017-10-06T06:08:19.479Z,1.10
2017-10-06T06:10:46.935Z,1.20
2017-10-06T06:13:14.391Z,1.13
2017-10-06T06:15:41.850Z,1.40
2017-10-06T06:18:09.316Z,1.80
2017-10-06T06:20:36.768Z,1.33
2017-10-06T06:23:04.231Z,1.40
2017-10-06T06:25:31.678Z,1.30
2017-10-06T06:27:59.143Z,1.23
2017-10-06T06:30:26.596Z,1.30
2017-10-06T06:32:54.082Z,1.20
2017-10-06T06:35:21.544Z,1.13
2017-10-06T06:37:49.004Z,1.60
2017-10-06T06:40:16.454Z,1.40
2017-10-06T06:42:43.915Z,1.40
2017-10-06T06:45:11.371Z,1.07
2017-10-06T06:47:38.835Z,1.47
2017-10-06T06:50:06.291Z,1.40
2017-10-06T06:52:33.759Z,1.10
2017-10-06T06:55:01.211Z,1.20
2017-10-06T06:57:28.688Z,1.53
2017-10-06T06:59:56.158Z,1.30
2017-10-06T07:02:23.638Z,1.23
2017-10-06T07:04:51.083Z,1.43
2017-10-06T07:07:19.293Z,1.10
2017-10-06T07:09:46.759Z,1.50
2017-10-06T07:12:14.223Z,1.30
2017-10-06T07:14:41.690Z,1.30
2017-10-06T07:17:09.147Z,1.10
2017-10-06T07:19:36.610Z,1.10
2017-10-06T07:22:04.063Z,1.10
2017-10-06T07:24:31.518Z,1.00
2017-10-06T07:26:58.979Z,1.30
2017-10-06T07:29:26.439Z,1.10
2017-10-06T07:31:53.894Z,1.17
2017-10-06T07:34:21.351Z,1.33
2017-10-06T07:36:48.802Z,0.90
2017-10-06T07:39:16.304Z,1.30
2017-10-06T07:41:44.527Z,1.53
2017-10-06T07:44:11.991Z,1.07
2017-10-06T07:46:39.442Z,1.10
2017-10-06T07:49:06.906Z,1.13
2017-10-06T07:51:34.359Z,1.23
2017-10-06T07:54:02.587Z,1.07
2017-10-06T07:56:30.823Z,1.30
2017-10-06T07:58:58.274Z,1.63
2017-10-06T08:01:25.739Z,1.40
2017-10-06T08:03:53.187Z,1.27
2017-10-06T08:06:20.642Z,1.60
2017-10-06T08:08:48.102Z,1.37
2017-10-06T08:11:15.558Z,1.53
2017-10-06T08:13:43.014Z,1.30
2017-10-06T08:16:10.485Z,1.63
2017-10-06T08:18:38.708Z,1.33
2017-10-06T08:21:06.970Z,1.27
2017-10-06T08:23:35.182Z,1.50
2017-10-06T08:26:02.649Z,1.30
2017-10-06T08:28:30.099Z,1.80
2017-10-06T08:30:57.572Z,1.63
2017-10-06T08:33:25.795Z,1.37
2017-10-06T08:35:54.004Z,1.40
2017-10-06T08:38:21.468Z,1.40
2017-10-06T08:40:48.919Z,1.87
2017-10-06T08:43:16.387Z,1.60
2017-10-06T08:45:43.871Z,1.70
2017-10-06T08:48:11.322Z,1.90
2017-10-06T08:50:38.775Z,1.67
2017-10-06T08:53:06.389Z,1.77
2017-10-06T08:55:33.831Z,1.63
2017-10-06T08:58:01.298Z,1.33
2017-10-06T09:00:28.759Z,1.50
2017-10-06T09:02:56.211Z,2.03
2017-10-06T09:05:23.674Z,1.60
2017-10-06T09:07:51.132Z,1.57
2017-10-06T09:10:18.579Z,1.50
2017-10-06T09:12:46.043Z,2.17
2017-10-06T09:15:13.488Z,1.67
2017-10-06T09:17:41.735Z,1.50
2017-10-06T09:20:09.183Z,1.50
2017-10-06T09:22:36.646Z,1.50
2017-10-06T09:25:04.111Z,2.10
2017-10-06T09:27:31.564Z,2.03
2017-10-06T09:29:59.023Z,2.03
2017-10-06T09:32:26.479Z,1.90
2017-10-06T09:34:53.943Z,1.13
2017-10-06T09:37:21.390Z,1.90
2017-10-06T09:39:49.630Z,1.70
2017-10-06T09:42:17.087Z,1.60
2017-10-06T09:44:44.550Z,2.10
2017-10-06T09:47:12.787Z,1.70
2017-10-06T09:49:40.242Z,1.57
2017-10-06T09:52:08.463Z,1.83
2017-10-06T09:54:35.923Z,1.50
2017-10-06T09:57:03.375Z,1.60
2017-10-06T09:59:30.859Z,2.20
2017-10-06T10:01:58.314Z,1.63
2017-10-06T10:04:25.795Z,1.77
2017-10-06T10:06:54.027Z,1.50
2017-10-06T10:09:21.483Z,1.63
2017-10-06T10:11:48.939Z,2.00
2017-10-06T10:14:16.390Z,1.53
2017-10-06T10:16:43.851Z,1.87
2017-10-06T10:19:12.074Z,1.87
2017-10-06T10:21:39.550Z,1.80
2017-10-06T10:24:07.000Z,2.00
2017-10-06T10:26:35.224Z,1.30
2017-10-06T10:29:02.692Z,1.57
2017-10-06T10:31:30.197Z,1.60
2017-10-06T10:33:58.404Z,2.17
2017-10-06T10:36:25.924Z,2.17
2017-10-06T10:38:54.158Z,2.10
2017-10-06T10:41:21.616Z,2.00
2017-10-06T10:43:49.090Z,2.00
2017-10-06T10:46:16.542Z,2.43
2017-10-06T10:48:44.006Z,2.57
2017-10-06T10:51:11.469Z,2.90
2017-10-06T10:53:38.943Z,3.57
2017-10-06T10:56:07.171Z,3.83
2017-10-06T10:58:34.639Z,4.73
2017-10-06T11:01:02.097Z,4.60
2017-10-06T11:03:29.571Z,5.80
2017-10-06T11:05:57.032Z,5.83
2017-10-06T11:08:24.495Z,6.07
2017-10-06T11:10:52.714Z,5.53
2017-10-06T11:13:20.179Z,6.17
2017-10-06T11:15:47.644Z,5.27
2017-10-06T11:18:15.111Z,5.43
2017-10-06T11:20:42.580Z,5.43
2017-10-06T11:23:10.055Z,6.23
2017-10-06T11:25:38.282Z,6.17
2017-10-06T11:28:05.753Z,6.37
2017-10-06T11:30:33.207Z,5.53
2017-10-06T11:33:00.658Z,5.13
2017-10-06T11:35:28.131Z,5.80
2017-10-06T11:37:55.595Z,4.90
2017-10-06T11:40:23.066Z,5.27
2017-10-06T11:42:50.522Z,5.37
2017-10-06T11:45:17.980Z,4.37
2017-10-06T11:47:45.429Z,5.37
2017-10-06T11:50:12.889Z,4.70
2017-10-06T11:52:40.345Z,3.97
2017-10-06T11:55:07.811Z,4.80
2017-10-06T11:57:35.263Z,4.37
2017-10-06T12:00:02.727Z,4.27
2017-10-06T12:02:30.955Z,4.43
2017-10-06T12:04:58.414Z,4.17
2017-10-06T12:07:25.883Z,3.70
2017-10-06T12:09:53.363Z,4.33
2017-10-06T12:12:20.822Z,3.77
2017-10-06T12:14:48.279Z,4.00
2017-10-06T12:17:15.739Z,3.97
2017-10-06T12:19:43.969Z,4.00
2017-10-06T12:22:11.507Z,3.67
2017-10-06T12:24:39.726Z,3.90
2017-10-06T12:27:07.193Z,3.90
2017-10-06T12:29:34.649Z,4.13
2017-10-06T12:32:02.122Z,4.20
2017-10-06T12:34:29.591Z,3.57
2017-10-06T12:36:57.057Z,4.00
2017-10-06T12:39:24.513Z,3.47
2017-10-06T12:41:52.739Z,3.83
2017-10-06T12:44:20.195Z,3.17
2017-10-06T12:46:47.667Z,3.70
2017-10-06T12:49:15.120Z,2.90
2017-10-06T12:51:42.611Z,3.17
2017-10-06T12:54:10.563Z,3.10
2017-10-06T12:56:38.019Z,3.70
2017-10-06T12:59:05.502Z,3.00
2017-10-06T13:01:33.726Z,3.50
2017-10-06T13:04:01.196Z,3.23
2017-10-06T13:06:28.651Z,2.77
2017-10-06T13:08:56.144Z,3.00
2017-10-06T13:11:23.606Z,3.07
2017-10-06T13:13:51.825Z,3.00
2017-10-06T13:16:19.282Z,2.93
2017-10-06T13:18:46.739Z,2.43
2017-10-06T13:21:14.242Z,2.80
2017-10-06T13:23:41.707Z,2.83
2017-10-06T13:26:09.931Z,2.60
2017-10-06T13:28:37.382Z,2.77
2017-10-06T13:31:04.835Z,3.10
2017-10-06T13:33:32.298Z,2.83
2017-10-06T13:35:59.754Z,3.20
2017-10-06T13:38:27.219Z,2.90
2017-10-06T13:40:54.683Z,2.60
2017-10-06T13:43:22.172Z,2.40
2017-10-06T13:45:49.628Z,2.67
2017-10-06T13:48:17.112Z,2.63
2017-10-06T13:50:45.327Z,2.90
2017-10-06T13:53:12.779Z,2.60
2017-10-06T13:55:40.234Z,2.73
2017-10-06T13:58:07.686Z,2.63
2017-10-06T14:00:35.915Z,2.67
2017-10-06T14:03:03.371Z,2.80
2017-10-06T14:05:30.846Z,2.60
2017-10-06T14:07:59.071Z,2.40
2017-10-06T14:10:26.522Z,2.40
2017-10-06T14:12:54.763Z,2.37
2017-10-06T14:15:22.974Z,2.30
2017-10-06T14:17:51.198Z,2.80
2017-10-06T14:20:18.664Z,2.20
2017-10-06T14:22:46.892Z,2.13
2017-10-06T14:25:14.355Z,2.40
2017-10-06T14:27:41.798Z,2.23
2017-10-06T14:30:09.263Z,2.20
2017-10-06T14:32:36.748Z,2.30
2017-10-06T14:35:04.251Z,2.30
2017-10-06T14:37:31.715Z,2.30
2017-10-06T14:39:59.179Z,1.80
2017-10-06T14:42:26.639Z,2.40
2017-10-06T14:44:54.166Z,2.10
2017-10-06T14:47:21.623Z,2.20
2017-10-06T14:49:49.080Z,1.90
2017-10-06T14:52:16.539Z,2.20
2017-10-06T14:54:43.997Z,2.00
2017-10-06T14:57:11.464Z,2.20
2017-10-06T14:59:38.910Z,2.07
2017-10-06T15:02:06.370Z,2.20
2017-10-06T15:04:33.827Z,2.30
2017-10-06T15:07:01.291Z,2.27
2017-10-06T15:09:28.742Z,2.47
2017-10-06T15:11:56.204Z,2.10
2017-10-06T15:14:24.435Z,2.10
2017-10-06T15:16:51.887Z,2.10
2017-10-06T15:19:19.343Z,3.07
2017-10-06T15:21:46.828Z,2.50
2017-10-06T15:24:15.051Z,3.20
2017-10-06T15:26:42.523Z,3.30
2017-10-06T15:29:09.976Z,2.80
2017-10-06T15:31:37.435Z,3.10
2017-10-06T15:34:04.903Z,3.17
2017-10-06T15:36:32.365Z,3.47
2017-10-06T15:38:59.823Z,3.13
2017-10-06T15:41:27.279Z,3.00
2017-10-06T15:43:54.735Z,3.30
2017-10-06T15:46:22.952Z,3.00
2017-10-06T15:48:50.410Z,3.37
2017-10-06T15:51:17.864Z,2.30
2017-10-06T15:53:45.327Z,3.40
2017-10-06T15:56:12.783Z,3.03
2017-10-06T15:58:40.248Z,3.13
2017-10-06T16:01:07.705Z,2.93
2017-10-06T16:03:35.182Z,3.00
2017-10-06T16:06:02.652Z,2.80
2017-10-06T16:08:30.102Z,2.70
2017-10-06T16:10:58.326Z,2.93
2017-10-06T16:13:26.562Z,2.80
2017-10-06T16:15:54.033Z,2.70
2017-10-06T16:18:21.490Z,3.13
2017-10-06T16:20:48.964Z,2.97
2017-10-06T16:23:16.427Z,3.43
2017-10-06T16:25:44.655Z,2.40
2017-10-06T16:28:12.115Z,2.40
2017-10-06T16:30:40.371Z,3.03
2017-10-06T16:33:07.819Z,2.83
2017-10-06T16:35:35.315Z,3.30
2017-10-06T16:38:02.776Z,2.90
2017-10-06T16:40:30.247Z,2.60
2017-10-06T16:42:57.707Z,3.23
2017-10-06T16:45:25.176Z,2.70
2017-10-06T16:47:52.627Z,3.10
2017-10-06T16:50:20.859Z,2.70
2017-10-06T16:52:48.323Z,2.97
2017-10-06T16:55:15.783Z,2.50
2017-10-06T16:57:43.252Z,2.37
2017-10-06T17:00:10.704Z,3.17
2017-10-06T17:02:38.171Z,2.70
2017-10-06T17:05:05.640Z,2.53
2017-10-06T17:07:33.099Z,2.40
2017-10-06T17:10:00.550Z,2.70
2017-10-06T17:12:28.011Z,2.70
2017-10-06T17:14:55.469Z,2.50
2017-10-06T17:17:22.942Z,2.47
2017-10-06T17:19:50.391Z,2.47
2017-10-06T17:22:17.848Z,2.57
2017-10-06T17:24:45.295Z,2.30
2017-10-06T17:27:12.755Z,2.60
2017-10-06T17:29:40.465Z,2.43
2017-10-06T17:32:07.933Z,2.10
2017-10-06T17:34:36.148Z,2.30
2017-10-06T17:37:03.635Z,2.10
2017-10-06T17:39:31.865Z,2.63
2017-10-06T17:41:59.327Z,2.53
2017-10-06T17:44:26.779Z,2.33
2017-10-06T17:46:54.234Z,2.23
2017-10-06T17:49:22.464Z,2.17
2017-10-06T17:51:50.685Z,2.63
2017-10-06T17:54:18.147Z,2.20
2017-10-06T17:56:46.359Z,2.17
2017-10-06T17:59:14.593Z,2.73
2017-10-06T18:01:42.052Z,3.00
2017-10-06T18:04:10.048Z,2.27
2017-10-06T18:06:37.531Z,2.90
2017-10-06T18:09:04.991Z,2.70
2017-10-06T18:11:32.464Z,4.13
2017-10-06T18:13:59.927Z,3.37
2017-10-06T18:16:28.151Z,5.17
2017-10-06T18:18:55.606Z,4.10
2017-10-06T18:21:23.062Z,4.23
2017-10-06T18:23:50.519Z,4.40
2017-10-06T18:26:17.986Z,4.97
2017-10-06T18:28:45.758Z,4.67
2017-10-06T18:31:13.979Z,4.97
2017-10-06T18:33:41.599Z,4.50
2017-10-06T18:36:09.836Z,4.47
2017-10-06T18:38:37.291Z,5.30
2017-10-06T18:41:04.755Z,5.00
2017-10-06T18:43:32.206Z,4.90
2017-10-06T18:45:59.667Z,4.63
2017-10-06T18:48:27.125Z,4.60
2017-10-06T18:50:54.577Z,4.93
2017-10-06T18:53:22.023Z,4.70
2017-10-06T18:55:50.251Z,4.73
2017-10-06T18:58:17.710Z,5.23
2017-10-06T19:00:45.171Z,5.17
2017-10-06T19:03:12.627Z,5.07
2017-10-06T19:05:40.855Z,4.27
2017-10-06T19:08:08.319Z,4.53
2017-10-06T19:10:35.805Z,4.10
2017-10-06T19:13:04.026Z,4.43
2017-10-06T19:15:32.251Z,4.50
2017-10-06T19:17:59.714Z,4.43
2017-10-06T19:20:27.939Z,4.17
2017-10-06T19:22:55.408Z,4.27
2017-10-06T19:25:22.850Z,4.30
2017-10-06T19:27:50.317Z,4.20
2017-10-06T19:30:17.833Z,4.67
2017-10-06T19:32:46.128Z,4.20
2017-10-06T19:35:13.594Z,4.53
2017-10-06T19:37:41.819Z,4.40
2017-10-06T19:40:09.270Z,3.87
2017-10-06T19:42:37.516Z,4.27
2017-10-06T19:45:04.975Z,4.03
2017-10-06T19:47:32.432Z,4.23
2017-10-06T19:49:59.895Z,3.90
2017-10-06T19:52:27.354Z,3.83
2017-10-06T19:54:54.815Z,3.80
2017-10-06T19:57:22.281Z,3.40
2017-10-06T19:59:49.719Z,3.10
2017-10-06T20:02:17.958Z,3.93
2017-10-06T20:04:45.416Z,3.53
2017-10-06T20:07:12.892Z,3.63
2017-10-06T20:09:40.353Z,3.90
2017-10-06T20:12:07.809Z,3.70
2017-10-06T20:14:36.039Z,4.50
2017-10-06T20:17:04.255Z,3.80
2017-10-06T20:19:31.726Z,3.67
2017-10-06T20:21:59.184Z,3.33
2017-10-06T20:24:26.659Z,3.57
2017-10-06T20:26:54.122Z,3.70
2017-10-06T20:29:21.699Z,3.40
2017-10-06T20:31:50.651Z,3.50
2017-10-06T20:34:18.116Z,3.80
2017-10-06T20:36:46.371Z,3.70
2017-10-06T20:39:13.826Z,3.97
2017-10-06T20:41:41.286Z,3.80
2017-10-06T20:44:08.762Z,3.67
2017-10-06T20:46:36.978Z,4.67
2017-10-06T20:49:05.203Z,4.33
2017-10-06T20:51:32.678Z,4.27
2017-10-06T20:54:00.151Z,4.70
2017-10-06T20:56:27.610Z,4.23
2017-10-06T20:58:55.827Z,4.40
2017-10-06T21:01:23.290Z,4.40
2017-10-06T21:03:51.502Z,4.10
2017-10-06T21:06:18.974Z,4.90
2017-10-06T21:08:47.935Z,4.57
2017-10-06T21:11:15.407Z,4.30
2017-10-06T21:13:42.875Z,5.13
2017-10-06T21:16:10.346Z,3.90
2017-10-06T21:18:37.819Z,4.23
2017-10-06T21:21:06.050Z,4.97
2017-10-06T21:23:33.520Z,4.57
2017-10-06T21:26:00.983Z,4.20
2017-10-06T21:28:28.440Z,4.20
2017-10-06T21:30:55.907Z,4.70
2017-10-06T21:33:23.363Z,4.00
2017-10-06T21:35:50.831Z,5.10
2017-10-06T21:38:19.073Z,4.47
2017-10-06T21:40:46.544Z,4.00
2017-10-06T21:43:14.003Z,4.60
2017-10-06T21:45:41.478Z,4.27
2017-10-06T21:48:09.698Z,4.30
2017-10-06T21:50:37.911Z,4.33
2017-10-06T21:53:05.374Z,4.20
2017-10-06T21:55:32.826Z,4.33
2017-10-06T21:58:00.284Z,5.13
2017-10-06T22:00:27.742Z,5.50
2017-10-06T22:03:00.662Z,5.90
2017-10-06T22:05:28.550Z,5.73
2017-10-06T22:07:56.033Z,6.40
2017-10-06T22:10:23.494Z,6.50
2017-10-06T22:12:50.980Z,6.37
2017-10-06T22:15:18.439Z,6.40
2017-10-06T22:17:45.914Z,6.90
2017-10-06T22:20:13.379Z,7.87
2017-10-06T22:22:40.846Z,6.87
2017-10-06T22:25:08.298Z,6.53
2017-10-06T22:27:35.762Z,7.43
2017-10-06T22:30:03.219Z,6.40
2017-10-06T22:32:30.672Z,6.43
2017-10-06T22:34:58.148Z,6.70
2017-10-06T22:37:25.607Z,6.37
2017-10-06T22:39:53.061Z,6.40
2017-10-06T22:42:20.520Z,6.03
2017-10-06T22:44:47.974Z,7.10
2017-10-06T22:47:15.437Z,6.13
2017-10-06T22:49:42.902Z,6.07
2017-10-06T22:52:10.346Z,5.60
2017-10-06T22:54:37.797Z,6.40
2017-10-06T22:57:05.258Z,5.90
2017-10-06T22:59:32.713Z,5.77
2017-10-06T23:02:00.170Z,5.60
2017-10-06T23:04:27.627Z,5.87
2017-10-06T23:06:55.080Z,5.07
2017-10-06T23:09:22.697Z,5.63
2017-10-06T23:11:50.138Z,5.77
2017-10-06T23:14:17.593Z,6.30
2017-10-06T23:16:45.046Z,5.20
2017-10-06T23:19:12.511Z,5.53
2017-10-06T23:21:39.970Z,5.23
2017-10-06T23:24:07.432Z,5.23
2017-10-06T23:26:34.883Z,4.80
2017-10-06T23:29:02.341Z,5.27
2017-10-06T23:31:29.791Z,4.67
2017-10-06T23:33:57.258Z,5.10
2017-10-06T23:36:24.713Z,5.03
2017-10-06T23:38:52.174Z,4.80
2017-10-06T23:41:19.630Z,5.10
2017-10-06T23:43:47.094Z,4.33
2017-10-06T23:46:14.554Z,4.57
2017-10-06T23:48:42.002Z,4.50
2017-10-06T23:51:09.461Z,5.00
2017-10-06T23:53:36.909Z,4.47
2017-10-06T23:56:04.371Z,4.80
2017-10-06T23:58:31.818Z,3.87
